This is the latest recevied weather packets stored in our database for station/object WMKP. If no packets are shown the sender has not sent any weather packets the latest 10 day(s).
| Time | Temp. | Humidity | Pressure | Rain* | Wind** | Luminosity | Snow |
|---|---|---|---|---|---|---|---|
| 1777713017 | 30° C | 66% | 1005 hPa | - | - | - | - |
| 1777711200 | 30.56° C | 62% | 1005 hPa | - | - | - | - |
| 1777709417 | 30.56° C | 62% | 1006 hPa | - | - | - | - |
| 1777707599 | 31.67° C | 59% | 1006 hPa | - | - | - | - |
| 1777705818 | 31.67° C | 59% | 1007 hPa | - | - | - | - |
| 1777703999 | 31.67° C | 62% | 1008 hPa | - | - | - | - |
| 1777702224 | 30.56° C | 70% | 1008 hPa | - | - | - | - |
| 1777700402 | 30° C | 74% | 1009 hPa | - | - | - | - |
| 1777698620 | 30.56° C | 70% | 1009 hPa | - | - | - | - |
| 1777696798 | 30.56° C | 70% | 1009 hPa | - | - | - | - |
| 1777695016 | 30.56° C | 70% | 1009 hPa | - | - | - | - |
| 1777693198 | 30.56° C | 70% | 1009 hPa | - | - | - | - |
| 1777691416 | 30.56° C | 70% | 1010 hPa | - | - | - | - |
| 1777689598 | 30° C | 74% | 1010 hPa | - | - | - | - |
| 1777687824 | 30° C | 74% | 1010 hPa | - | - | - | - |
| 1777673416 | 25.56° C | 94% | 1007 hPa | - | - | - | - |
| 1777669826 | 25.56° C | 88% | 1007 hPa | - | - | - | - |
| 1777662616 | 25.56° C | 94% | 1008 hPa | - | - | - | - |
| 1777659016 | 25.56° C | 94% | 1009 hPa | - | - | - | - |
| 1777655425 | 26.67° C | 88% | 1009 hPa | - | - | - | - |
| 1777653601 | 26.67° C | 88% | 1009 hPa | - | - | - | - |
| 1777651817 | 26.67° C | 88% | 1009 hPa | - | - | - | - |
| 1777649997 | 26.67° C | 88% | 1009 hPa | - | - | - | - |
| 1777648790 | 26.67° C | 88% | 1009 hPa | - | - | - | - |
| 1777646397 | 26.67° C | 88% | 1009 hPa | - | - | - | - |
* Rain since midnight (hover to see other rain measurements)
** Current wind speed in m/s (hover to see current wind gust speed)